Time;durP1;ratioP1;P1;durP2;ratioP2;P2;SDS_P1;SDS_P2;PMS_P1;PMS_P2;Temp;Humidity;BMP_temperature;BMP_pressure;BME280_temperature;BME280_humidity;BME280_pressure;Samples;Min_cycle;Max_cycle;Signal;HPM_P1;HPM_P2
2022/04/27 00:01:04;;;;;;;106.32;47.50;;;;;;;25.06;63.44;97828.19;4846918;29;20124;-63
2022/04/27 00:03:59;;;;;;;102.57;45.80;;;;;;;25.09;65.14;97831.31;4852441;29;20140;-63
2022/04/27 00:06:34;;;;;;;105.35;48.55;;;;;;;25.04;63.77;97830.16;4853728;29;20057;-63
2022/04/27 00:09:22;;;;;;;97.95;47.63;;;;;;;24.90;62.89;97833.34;4853491;29;20113;-63
2022/04/27 00:12:12;;;;;;;102.00;49.92;;;;;;;24.83;65.17;97832.31;4846634;29;20049;-63
2022/04/27 00:14:57;;;;;;;105.78;48.67;;;;;;;24.96;68.65;97838.03;4835526;29;20154;-63
2022/04/27 00:17:47;;;;;;;104.43;49.53;;;;;;;24.98;69.09;97836.88;4821402;29;20046;-63
2022/04/27 00:20:28;;;;;;;107.43;47.03;;;;;;;24.86;68.21;97850.44;4850675;29;20376;-63
2022/04/27 00:23:18;;;;;;;112.50;46.97;;;;;;;24.76;66.81;97854.00;4835121;29;20054;-63
2022/04/27 00:25:59;;;;;;;102.25;48.90;;;;;;;24.89;68.92;97850.97;4827206;29;20159;-63
2022/04/27 00:28:49;;;;;;;102.13;48.13;;;;;;;24.89;68.94;97855.41;4850678;29;20057;-62
2022/04/27 00:31:31;;;;;;;112.95;49.00;;;;;;;24.91;70.78;97848.19;4836084;29;20049;-62
2022/04/27 00:34:21;;;;;;;110.50;48.13;;;;;;;24.83;65.11;97846.31;4826581;29;20045;-63
2022/04/27 00:37:03;;;;;;;98.32;47.00;;;;;;;24.79;66.12;97847.63;4856111;29;20054;-63
2022/04/27 00:39:52;;;;;;;103.18;45.22;;;;;;;24.90;69.06;97851.81;4876072;29;20069;-63
2022/04/27 00:42:41;;;;;;;93.57;46.75;;;;;;;24.89;71.73;97844.88;4866932;29;20133;-62
2022/04/27 00:45:30;;;;;;;94.43;47.42;;;;;;;24.90;71.50;97851.81;4850344;29;20072;-62
2022/04/27 00:48:11;;;;;;;99.80;46.55;;;;;;;25.03;71.16;97852.22;4841077;29;20045;-62
2022/04/27 00:51:01;;;;;;;98.90;46.63;;;;;;;24.98;70.08;97854.53;4840069;29;20049;-63
2022/04/27 00:53:43;;;;;;;99.55;47.10;;;;;;;24.93;71.28;97862.88;4839249;29;20126;-62
2022/04/27 00:56:33;;;;;;;94.35;44.65;;;;;;;24.99;72.24;97864.88;4820784;29;20057;-62
2022/04/27 00:59:15;;;;;;;112.75;45.92;;;;;;;25.04;75.17;97870.53;4838382;29;20045;-63
2022/04/27 01:02:07;;;;;;;100.20;46.28;;;;;;;25.04;75.32;97870.53;4826182;29;20133;-62
2022/04/27 01:04:49;;;;;;;91.10;45.72;;;;;;;25.02;73.43;97882.19;4856324;29;20057;-62
2022/04/27 01:07:38;;;;;;;109.10;46.85;;;;;;;24.99;72.48;97880.69;4840357;29;20061;-63
2022/04/27 01:10:19;;;;;;;97.18;46.80;;;;;;;25.09;78.76;97877.94;4844248;29;20675;-62
2022/04/27 01:13:09;;;;;;;100.57;46.95;;;;;;;25.14;77.27;97875.69;4821852;29;20110;-62
2022/04/27 01:15:57;;;;;;;94.47;45.95;;;;;;;25.22;80.87;97873.09;4823972;29;20046;-63
2022/04/27 01:18:46;;;;;;;99.78;48.42;;;;;;;25.21;77.02;97881.16;4870382;29;20152;-62
2022/04/27 01:21:34;;;;;;;92.78;45.80;;;;;;;25.22;76.13;97878.38;4829199;29;20050;-62
2022/04/27 01:24:19;;;;;;;95.90;47.00;;;;;;;25.32;80.64;97883.50;4840029;29;20049;-63
2022/04/27 01:27:08;;;;;;;95.28;46.88;;;;;;;25.43;82.88;97885.88;4840237;29;20053;-63
2022/04/27 01:29:50;;;;;;;101.28;46.90;;;;;;;25.50;82.54;97889.50;4856498;29;20498;-63
2022/04/27 01:32:38;;;;;;;103.72;48.90;;;;;;;25.55;82.89;97882.75;4856433;29;20073;-63
2022/04/27 01:35:21;;;;;;;88.22;45.13;;;;;;;25.67;83.24;97893.06;4856218;29;20064;-63
2022/04/27 01:38:09;;;;;;;96.45;43.08;;;;;;;25.76;80.89;97892.94;4856126;29;20466;-63
2022/04/27 01:40:59;;;;;;;87.20;44.17;;;;;;;25.93;80.76;97896.44;4825229;29;20141;-63
2022/04/27 01:43:47;;;;;;;92.10;44.13;;;;;;;26.06;80.36;97901.25;4840163;29;20046;-63
2022/04/27 01:46:31;;;;;;;89.82;42.33;;;;;;;26.17;79.76;97907.06;4856491;29;20149;-62
2022/04/27 01:49:19;;;;;;;84.80;40.45;;;;;;;26.40;81.46;97909.09;4839617;29;20476;-63
2022/04/27 01:55:09;;;;;;;77.25;37.67;;;;;;;26.59;77.47;97906.09;4820188;29;20061;-63
2022/04/27 01:57:51;;;;;;;76.75;36.78;;;;;;;26.74;77.94;97909.72;4837644;29;20143;-63
2022/04/27 02:00:39;;;;;;;82.18;35.25;;;;;;;26.86;76.91;97912.84;4809087;29;20058;-63
2022/04/27 02:03:22;;;;;;;79.63;36.17;;;;;;;27.03;79.77;97914.50;4802478;29;20062;-63
2022/04/27 02:06:10;;;;;;;72.80;33.97;;;;;;;27.15;83.25;97914.97;4818212;29;20043;-64
2022/04/27 02:08:53;;;;;;;80.65;32.88;;;;;;;27.21;78.90;97916.97;4839723;29;20141;-64
2022/04/27 02:11:50;;;;;;;68.40;30.90;;;;;;;27.36;79.65;97924.03;4813432;29;20042;-64
2022/04/27 02:14:33;;;;;;;73.00;32.03;;;;;;;27.65;81.53;97915.50;4842491;29;20769;-64
2022/04/27 02:17:21;;;;;;;70.93;30.98;;;;;;;28.41;64.48;97929.81;4799663;29;20880;-64
2022/04/27 02:20:04;;;;;;;61.90;29.60;;;;;;;29.28;65.51;97926.56;4812350;29;20054;-65
2022/04/27 02:23:01;;;;;;;64.30;32.42;;;;;;;30.16;62.38;97933.66;4825432;29;20061;-64
2022/04/27 02:25:36;;;;;;;73.25;30.02;;;;;;;30.95;65.79;97938.91;4829774;29;20046;-62
2022/04/27 02:28:26;;;;;;;63.75;30.88;;;;;;;31.20;71.27;97932.16;4828939;29;20099;-65
2022/04/27 02:31:09;;;;;;;61.17;30.35;;;;;;;31.68;63.54;97937.56;4841871;29;20382;-65
2022/04/27 02:33:58;;;;;;;72.85;32.42;;;;;;;31.95;67.27;97944.63;4821199;29;20719;-64
2022/04/27 02:36:41;;;;;;;83.05;33.78;;;;;;;32.22;64.46;97946.41;4802740;29;20062;-64
2022/04/27 02:39:28;;;;;;;74.05;32.55;;;;;;;32.44;58.84;97949.72;4841460;29;20054;-64
2022/04/27 02:42:18;;;;;;;72.85;33.83;;;;;;;32.99;59.14;97951.22;4817653;29;20126;-63
2022/04/27 02:44:59;;;;;;;62.28;31.80;;;;;;;33.40;58.57;97956.31;4812149;29;20061;-64
2022/04/27 02:47:49;;;;;;;61.42;31.75;;;;;;;33.16;58.08;97953.47;4827688;29;20622;-64
2022/04/27 02:53:52;;;;;;;68.57;32.63;;;;;;;33.75;51.16;97958.72;4826524;29;20045;-64
2022/04/27 02:56:39;;;;;;;68.13;34.65;;;;;;;33.92;52.58;97964.44;4840245;29;20057;-64
2022/04/27 02:59:28;;;;;;;74.50;32.10;;;;;;;33.98;53.77;97961.72;4809942;29;20054;-64
2022/04/27 03:02:10;;;;;;;80.07;34.05;;;;;;;34.49;50.72;97960.84;4840825;29;20085;-64
2022/04/27 03:05:00;;;;;;;70.88;33.92;;;;;;;34.68;48.30;97964.41;4827940;29;20482;-63
2022/04/27 03:07:41;;;;;;;73.30;34.38;;;;;;;34.72;47.63;97971.00;4813372;29;20522;-63
2022/04/27 03:10:32;;;;;;;64.63;33.75;;;;;;;34.98;44.85;97976.16;4828009;29;20450;-63
2022/04/27 03:13:14;;;;;;;80.57;34.53;;;;;;;34.87;47.12;97971.53;4846852;29;20049;-63
2022/04/27 03:16:16;;;;;;;88.88;33.75;;;;;;;34.65;43.54;97978.22;4827851;29;20054;-63
2022/04/27 03:18:57;;;;;;;70.00;31.30;;;;;;;34.91;48.16;97970.03;4830439;29;20370;-63
2022/04/27 03:21:47;;;;;;;69.18;28.63;;;;;;;35.02;44.77;97979.22;4827637;29;20045;-64
2022/04/27 03:24:36;;;;;;;58.00;28.55;;;;;;;35.17;42.55;97980.53;4846239;29;20077;-64
2022/04/27 03:27:25;;;;;;;74.55;29.08;;;;;;;35.06;43.60;97981.25;4828475;29;20369;-64
2022/04/27 03:30:14;;;;;;;64.22;27.92;;;;;;;34.65;41.99;97986.25;4822681;29;20053;-63
2022/04/27 03:33:06;;;;;;;66.70;27.80;;;;;;;34.46;53.09;97982.69;4796773;29;20051;-64
2022/04/27 03:35:49;;;;;;;67.97;26.80;;;;;;;34.98;44.38;97992.22;4829444;29;20049;-64
2022/04/27 03:38:43;;;;;;;56.50;25.48;;;;;;;35.19;47.27;97993.72;4837969;29;20276;-63
2022/04/27 03:41:32;;;;;;;63.33;26.05;;;;;;;35.39;42.73;97991.69;4818525;29;20374;-64
2022/04/27 03:44:17;;;;;;;61.53;23.42;;;;;;;35.20;38.57;98001.50;4821415;29;20052;-63
2022/04/27 03:47:06;;;;;;;53.80;22.25;;;;;;;35.57;38.61;97998.94;4836154;29;20058;-64
2022/04/27 03:49:59;;;;;;;67.38;25.20;;;;;;;35.54;39.58;97997.50;4816613;29;20511;-63
2022/04/27 03:52:54;;;;;;;51.78;21.88;;;;;;;35.70;38.11;97996.09;4803376;29;20054;-63
2022/04/27 03:55:44;;;;;;;52.40;21.25;;;;;;;35.87;38.03;98005.22;4833499;29;20054;-63
2022/04/27 03:58:40;;;;;;;44.03;20.85;;;;;;;36.09;38.25;98002.06;4834752;29;20041;-63
2022/04/27 04:01:15;;;;;;;63.67;19.95;;;;;;;36.11;36.76;98014.22;4816677;29;20050;-64
2022/04/27 04:04:05;;;;;;;43.53;18.02;;;;;;;36.39;35.57;98006.47;4786307;29;20578;-64
2022/04/27 04:06:48;;;;;;;45.15;18.35;;;;;;;36.55;37.72;98015.75;4817154;29;20138;-64
2022/04/27 04:09:46;;;;;;;41.90;18.10;;;;;;;36.63;36.67;98011.91;4800344;29;20106;-64
2022/04/27 04:12:28;;;;;;;46.78;17.98;;;;;;;36.52;34.03;98010.81;4799938;29;20066;-64
2022/04/27 04:15:40;;;;;;;46.45;17.98;;;;;;;36.64;35.28;98014.34;4790646;29;20753;-64
2022/04/27 04:18:48;;;;;;;49.53;18.27;;;;;;;36.99;39.41;98027.09;4814659;29;20479;-65
2022/04/27 04:22:13;;;;;;;44.42;15.13;;;;;;;37.32;39.03;98016.66;4759949;30;20056;-64
2022/04/27 04:28:32;;;;;;;42.90;12.45;;;;;;;37.11;35.96;98018.00;4799961;29;20046;-62
2022/04/27 04:31:21;;;;;;;36.15;10.30;;;;;;;37.21;32.48;98024.69;4824980;29;20062;-62
2022/04/27 04:34:32;;;;;;;29.52;9.80;;;;;;;37.19;32.93;98016.88;4818225;29;20472;-62
2022/04/27 04:37:21;;;;;;;26.70;9.57;;;;;;;37.59;36.93;98014.34;4824613;29;20061;-62
2022/04/27 04:40:10;;;;;;;40.47;11.10;;;;;;;37.60;36.00;98020.53;4813140;29;20126;-62
2022/04/27 04:43:00;;;;;;;33.70;10.35;;;;;;;37.83;31.97;98015.13;4805408;29;20405;-62
2022/04/27 04:45:49;;;;;;;27.15;8.45;;;;;;;37.67;32.16;98021.22;4810275;29;20057;-62
2022/04/27 04:48:53;;;;;;;43.15;10.40;;;;;;;37.95;36.78;98015.91;4825661;29;20054;-62
2022/04/27 04:52:02;;;;;;;27.08;10.57;;;;;;;37.91;32.88;98020.16;4840102;29;20213;-62
2022/04/27 04:55:18;;;;;;;30.45;11.48;;;;;;;37.99;35.24;98013.56;4814030;29;20072;-62
2022/04/27 04:58:20;;;;;;;41.00;13.63;;;;;;;38.25;33.49;98010.34;4826321;29;20072;-62
2022/04/27 05:01:25;;;;;;;34.53;14.77;;;;;;;38.32;38.85;98005.63;4827773;29;20198;-62
2022/04/27 05:04:34;;;;;;;34.67;14.85;;;;;;;38.44;36.33;98016.38;4807355;29;20494;-64
2022/04/27 05:07:24;;;;;;;44.53;16.38;;;;;;;38.57;37.62;98010.72;4827755;29;20110;-64
2022/04/27 05:10:31;;;;;;;40.42;16.17;;;;;;;38.60;34.96;98013.75;4833487;29;20608;-64
2022/04/27 05:13:38;;;;;;;38.83;17.05;;;;;;;38.95;30.01;98027.03;4800217;29;20046;-64
2022/04/27 05:16:36;;;;;;;46.80;15.10;;;;;;;39.16;34.35;98022.81;4824465;29;20608;-63
2022/04/27 05:19:55;;;;;;;45.05;15.25;;;;;;;39.02;29.53;98025.03;4820581;29;20046;-65
2022/04/27 05:23:12;;;;;;;37.25;13.63;;;;;;;39.15;29.99;98025.75;4820778;29;20141;-65
2022/04/27 05:26:21;;;;;;;44.85;14.25;;;;;;;39.11;29.98;98021.91;4828392;29;20149;-65
2022/04/27 05:32:44;;;;;;;33.60;13.60;;;;;;;38.66;33.04;98011.94;4830544;29;20058;-65
2022/04/27 05:35:52;;;;;;;34.10;11.60;;;;;;;38.92;30.06;98011.34;4832780;29;20050;-66
2022/04/27 05:43:26;;;;;;;37.88;11.35;;;;;;;38.71;28.86;98003.97;4847062;29;20061;-65
2022/04/27 05:46:37;;;;;;;40.05;10.93;;;;;;;39.14;31.65;98007.94;4824396;29;20053;-65
2022/04/27 05:49:50;;;;;;;27.20;10.07;;;;;;;39.07;35.02;98004.59;4819154;29;20158;-65
2022/04/27 05:52:58;;;;;;;28.98;10.23;;;;;;;39.14;28.61;97997.97;4819715;29;20055;-66
2022/04/27 05:56:13;;;;;;;38.30;9.90;;;;;;;39.22;33.34;97994.03;4790369;29;20290;-65
2022/04/27 05:59:13;;;;;;;27.20;9.63;;;;;;;38.86;31.86;97996.16;4822414;29;20549;-65
2022/04/27 06:02:28;;;;;;;36.28;9.70;;;;;;;38.95;29.25;98004.69;4812827;29;20131;-64
2022/04/27 06:05:21;;;;;;;35.67;8.93;;;;;;;39.00;29.66;97992.09;4806687;29;20074;-65
2022/04/27 06:08:03;;;;;;;21.93;7.30;;;;;;;39.08;25.39;98000.84;4847979;29;20081;-65
2022/04/27 06:11:01;;;;;;;21.45;7.18;;;;;;;38.90;27.41;97999.97;4807601;29;20085;-64
2022/04/27 06:13:56;;;;;;;20.85;6.18;;;;;;;39.10;28.19;97999.53;4823980;29;20064;-65
2022/04/27 06:16:56;;;;;;;22.65;6.97;;;;;;;39.05;28.44;97983.25;4842133;29;20045;-65
2022/04/27 06:19:38;;;;;;;20.52;6.15;;;;;;;38.99;27.69;97984.25;4808806;29;20060;-66
2022/04/27 06:22:27;;;;;;;31.52;7.65;;;;;;;39.07;32.47;97972.25;4814699;29;20061;-66
2022/04/27 06:25:13;;;;;;;28.83;7.10;;;;;;;39.16;27.94;97978.84;4805078;29;20534;-65
2022/04/27 06:28:10;;;;;;;32.08;7.85;;;;;;;39.35;28.71;97977.53;4837642;29;20056;-67
2022/04/27 06:30:54;;;;;;;22.13;7.05;;;;;;;39.12;27.10;97977.69;4798037;29;20732;-66
2022/04/27 06:33:51;;;;;;;28.48;7.03;;;;;;;39.16;25.42;97981.56;4797677;29;20061;-65
2022/04/27 06:36:27;;;;;;;25.63;7.05;;;;;;;39.22;25.79;97977.88;4805458;29;20050;-64
2022/04/27 06:39:28;;;;;;;17.77;6.47;;;;;;;39.31;26.95;97976.38;4816486;29;21232;-65
2022/04/27 06:42:12;;;;;;;24.13;6.57;;;;;;;39.43;26.68;97977.16;4820101;29;20057;-64
2022/04/27 06:45:19;;;;;;;24.67;7.18;;;;;;;39.41;28.45;97965.78;4826097;29;20053;-64
2022/04/27 06:48:19;;;;;;;25.70;7.00;;;;;;;39.13;24.54;97972.06;4832069;29;20073;-65
2022/04/27 06:51:26;;;;;;;19.90;6.38;;;;;;;39.26;27.38;97974.44;4834875;29;20060;-65
2022/04/27 06:54:27;;;;;;;25.67;7.20;;;;;;;39.01;29.87;97965.97;4832835;29;20050;-68
2022/04/27 06:57:34;;;;;;;25.45;6.20;;;;;;;38.86;25.73;97955.75;4834637;29;20711;-67
2022/04/27 07:00:25;;;;;;;24.75;9.82;;;;;;;38.72;26.17;97957.09;4819000;29;20060;-65
2022/04/27 07:03:16;;;;;;;26.42;9.73;;;;;;;38.71;26.06;97955.50;4812761;29;20085;-65
2022/04/27 07:06:05;;;;;;;23.75;6.90;;;;;;;38.69;26.04;97956.78;4830662;29;20058;-65
2022/04/27 07:08:55;;;;;;;19.92;6.53;;;;;;;38.61;27.67;97955.31;4830984;29;20884;-66
2022/04/27 07:11:45;;;;;;;25.33;6.93;;;;;;;38.73;29.24;97942.56;4831025;29;20053;-64
2022/04/27 07:14:33;;;;;;;26.45;7.25;;;;;;;38.83;28.45;97947.31;4834162;29;20137;-66
2022/04/27 07:17:16;;;;;;;30.10;6.85;;;;;;;38.66;24.66;97942.75;4832503;29;20126;-66
2022/04/27 07:20:05;;;;;;;22.50;6.93;;;;;;;38.92;27.26;97933.19;4830565;29;20045;-67
2022/04/27 07:22:47;;;;;;;31.08;8.05;;;;;;;38.94;26.54;97938.38;4822416;29;20054;-67
2022/04/27 07:25:35;;;;;;;20.48;7.68;;;;;;;39.12;26.25;97934.56;4820189;29;20378;-65
2022/04/27 07:28:18;;;;;;;28.25;7.28;;;;;;;39.21;26.65;97935.78;4833847;29;20054;-65
2022/04/27 07:31:14;;;;;;;28.15;8.88;;;;;;;39.07;26.54;97927.25;4837157;29;20514;-66
2022/04/27 07:33:49;;;;;;;22.58;7.45;;;;;;;38.99;28.62;97920.41;4836097;29;20073;-65
2022/04/27 07:36:44;;;;;;;22.10;7.40;;;;;;;38.94;28.63;97906.03;4831230;29;20370;-64
2022/04/27 07:39:19;;;;;;;32.03;7.50;;;;;;;38.90;28.11;97915.63;4829495;29;20057;-65
2022/04/27 07:42:15;;;;;;;33.78;8.90;;;;;;;38.91;26.59;97906.50;4821043;29;21703;-64
2022/04/27 07:44:50;;;;;;;28.10;7.78;;;;;;;38.90;27.25;97913.75;4831484;29;20046;-65
2022/04/27 07:47:50;;;;;;;30.60;7.35;;;;;;;38.93;24.96;97904.38;4831438;29;20058;-65
2022/04/27 07:50:25;;;;;;;22.10;7.43;;;;;;;38.88;26.08;97902.41;4824504;29;20065;-64
2022/04/27 07:53:20;;;;;;;23.25;7.68;;;;;;;38.74;28.37;97895.72;4836582;29;20061;-64
2022/04/27 07:56:07;;;;;;;28.98;8.15;;;;;;;38.55;27.71;97892.47;4828990;29;20421;-64
2022/04/27 07:58:57;;;;;;;15.85;7.55;;;;;;;38.42;27.30;97891.94;4831103;29;20064;-67
2022/04/27 08:01:39;;;;;;;27.67;8.02;;;;;;;38.40;27.27;97880.56;4839009;29;20058;-65
2022/04/27 08:04:28;;;;;;;25.27;8.02;;;;;;;38.42;28.40;97883.84;4836957;29;20069;-65
2022/04/27 08:07:09;;;;;;;20.48;8.00;;;;;;;38.43;27.84;97870.16;4834475;29;20071;-65
2022/04/27 08:09:59;;;;;;;25.35;9.68;;;;;;;38.43;26.87;97866.63;4833243;29;20046;-65
2022/04/27 08:12:49;;;;;;;24.55;7.70;;;;;;;38.41;28.03;97868.75;4834267;29;20165;-67
2022/04/27 08:15:38;;;;;;;22.20;8.90;;;;;;;38.36;27.29;97860.59;4834011;29;20061;-65
2022/04/27 08:18:20;;;;;;;25.67;7.20;;;;;;;38.34;27.91;97863.53;4822959;29;20062;-65
2022/04/27 08:21:16;;;;;;;21.05;6.53;;;;;;;38.31;28.03;97857.84;4813889;29;20057;-64
2022/04/27 08:23:59;;;;;;;18.70;7.10;;;;;;;38.23;28.16;97854.50;4835542;29;20720;-65
2022/04/27 08:26:49;;;;;;;25.67;8.50;;;;;;;38.24;26.18;97847.19;4828200;29;20057;-65
2022/04/27 08:29:30;;;;;;;22.95;7.00;;;;;;;38.21;27.09;97842.31;4832345;29;20050;-65
2022/04/27 08:32:20;;;;;;;27.20;8.70;;;;;;;38.19;28.37;97837.19;4832185;29;20077;-64
2022/04/27 08:35:01;;;;;;;38.92;8.60;;;;;;;38.10;26.96;97838.63;4845228;29;20057;-64
2022/04/27 08:37:51;;;;;;;24.25;8.57;;;;;;;38.08;28.15;97843.44;4842122;29;20068;-64
2022/04/27 08:40:36;;;;;;;18.77;7.03;;;;;;;37.99;27.95;97834.13;4829542;29;20057;-64
2022/04/27 08:43:25;;;;;;;28.83;7.50;;;;;;;38.17;26.71;97825.84;4832848;29;20058;-66
2022/04/27 08:46:09;;;;;;;14.82;6.35;;;;;;;38.07;27.51;97825.69;4831379;29;20079;-64
2022/04/27 08:48:58;;;;;;;25.98;6.72;;;;;;;38.10;27.97;97819.78;4832603;29;20050;-65
2022/04/27 08:51:39;;;;;;;23.63;6.07;;;;;;;38.03;29.48;97816.41;4830926;29;20414;-65
2022/04/27 08:54:35;;;;;;;21.77;6.30;;;;;;;37.90;26.61;97798.72;4816639;29;20474;-64
2022/04/27 08:57:22;;;;;;;26.63;6.85;;;;;;;37.88;27.12;97798.13;4831658;29;20067;-65
2022/04/27 09:00:15;;;;;;;32.85;7.13;;;;;;;37.88;27.25;97795.44;4829987;29;20049;-65
2022/04/27 09:03:23;;;;;;;21.48;6.60;;;;;;;37.92;27.66;97791.19;4834840;29;20122;-65
2022/04/27 09:06:20;;;;;;;25.77;6.53;;;;;;;37.84;28.77;97780.00;4833546;29;20061;-63
2022/04/27 09:09:13;;;;;;;21.73;7.15;;;;;;;37.83;28.18;97776.53;4831558;29;20081;-64
2022/04/27 09:12:00;;;;;;;21.55;7.30;;;;;;;37.89;27.24;97766.69;4831405;29;20061;-63
2022/04/27 09:14:49;;;;;;;21.92;7.40;;;;;;;37.84;28.19;97767.38;4832498;29;20062;-64
2022/04/27 09:20:57;;;;;;;30.80;7.60;;;;;;;37.54;28.77;97750.69;4803744;29;20127;-65
2022/04/27 09:23:41;;;;;;;20.63;7.10;;;;;;;37.57;26.95;97744.84;4826867;29;20073;-65
2022/04/27 09:26:31;;;;;;;19.02;6.95;;;;;;;37.50;31.08;97742.31;4828923;29;20054;-64
2022/04/27 09:29:33;;;;;;;21.08;6.82;;;;;;;37.29;31.33;97742.97;4825474;29;20099;-65
2022/04/27 09:32:17;;;;;;;22.90;6.55;;;;;;;37.27;31.53;97742.41;4832798;29;20148;-64
2022/04/27 09:35:09;;;;;;;20.27;6.05;;;;;;;37.29;28.62;97745.66;4829189;29;20505;-64
2022/04/27 09:37:51;;;;;;;23.40;6.32;;;;;;;37.28;30.56;97735.94;4826773;29;20054;-64
2022/04/27 09:40:50;;;;;;;21.17;7.00;;;;;;;37.24;31.42;97737.50;4825547;29;20502;-65
2022/04/27 09:43:43;;;;;;;24.95;5.90;;;;;;;37.02;33.26;97731.13;4825813;29;20050;-65
2022/04/27 09:46:32;;;;;;;19.48;6.28;;;;;;;37.00;30.80;97727.84;4826958;29;20058;-65
2022/04/27 09:49:14;;;;;;;29.95;6.60;;;;;;;36.97;31.03;97718.38;4830401;29;20065;-63
2022/04/27 09:52:23;;;;;;;26.38;6.13;;;;;;;37.11;28.34;97713.56;4845339;29;20054;-64
2022/04/27 09:55:07;;;;;;;20.60;6.47;;;;;;;37.02;27.21;97720.38;4861797;29;20124;-63
2022/04/27 09:58:01;;;;;;;18.42;5.50;;;;;;;36.85;32.35;97714.94;4861963;29;20053;-64
2022/04/27 10:00:44;;;;;;;25.92;6.50;;;;;;;36.72;32.78;97707.13;4862324;29;20500;-64
2022/04/27 10:03:33;;;;;;;27.08;6.57;;;;;;;36.68;31.78;97704.09;4863928;29;20052;-64
2022/04/27 10:06:16;;;;;;;24.45;7.25;;;;;;;36.52;32.09;97702.13;4864489;29;20461;-64
2022/04/27 10:09:10;;;;;;;23.75;6.55;;;;;;;36.60;31.42;97680.28;4860999;29;20049;-64
2022/04/27 10:12:13;;;;;;;32.05;6.85;;;;;;;36.46;30.63;97695.00;4858136;29;20056;-65
2022/04/27 10:15:02;;;;;;;22.52;7.15;;;;;;;36.43;33.55;97679.38;4858574;29;20057;-65
2022/04/27 10:17:44;;;;;;;19.33;6.18;;;;;;;36.41;31.07;97686.84;4853279;29;20045;-64
2022/04/27 10:20:40;;;;;;;32.38;8.35;;;;;;;36.64;29.58;97686.00;4848043;29;20071;-65
2022/04/27 10:23:32;;;;;;;19.63;6.30;;;;;;;36.76;29.03;97676.88;4870488;29;20056;-66
2022/04/27 10:26:35;;;;;;;21.10;7.60;;;;;;;36.60;29.04;97680.28;4839183;29;20061;-63
2022/04/27 10:29:17;;;;;;;20.25;6.65;;;;;;;36.35;32.71;97671.69;4845667;29;20518;-63
2022/04/27 10:32:06;;;;;;;29.23;7.25;;;;;;;36.48;28.71;97668.72;4852139;29;20052;-64
2022/04/27 10:35:25;;;;;;;24.85;7.90;;;;;;;36.86;29.17;97668.22;4852032;29;20053;-65
2022/04/27 10:38:30;;;;;;;24.30;7.45;;;;;;;36.86;27.54;97678.16;4851517;29;20053;-64
2022/04/27 10:41:19;;;;;;;27.27;7.93;;;;;;;36.82;28.57;97671.59;4852239;29;20065;-64
2022/04/27 10:44:01;;;;;;;23.60;7.22;;;;;;;37.16;27.30;97674.22;4853039;29;20776;-66
2022/04/27 10:46:50;;;;;;;37.25;8.00;;;;;;;37.16;26.96;97657.25;4852821;29;20060;-65
2022/04/27 10:49:36;;;;;;;26.90;7.85;;;;;;;37.20;27.28;97665.69;4854123;29;20088;-65
2022/04/27 10:52:24;;;;;;;20.40;7.13;;;;;;;37.19;26.37;97666.72;4852113;29;20064;-64
2022/04/27 10:55:10;;;;;;;25.13;7.03;;;;;;;37.08;28.81;97658.44;4836573;29;20053;-64
2022/04/27 10:58:35;;;;;;;24.98;6.15;;;;;;;36.97;29.42;97647.72;4833888;29;20053;-65
2022/04/27 11:01:26;;;;;;;21.02;6.95;;;;;;;36.80;30.33;97645.81;4765510;30;20063;-65
2022/04/27 11:04:15;;;;;;;26.23;8.05;;;;;;;36.95;29.48;97655.22;4828461;29;20050;-64
2022/04/27 11:07:12;;;;;;;32.13;8.35;;;;;;;36.76;29.00;97649.22;4828429;29;20385;-65
2022/04/27 11:10:28;;;;;;;35.83;7.20;;;;;;;36.65;28.43;97658.91;4826478;29;20479;-65
2022/04/27 11:13:08;;;;;;;34.55;10.50;;;;;;;36.51;30.73;97646.78;4818507;29;20733;-65
2022/04/27 11:16:07;;;;;;;38.63;9.15;;;;;;;36.58;29.45;97650.16;4826612;29;20061;-63
2022/04/27 11:19:06;;;;;;;30.77;8.38;;;;;;;36.58;27.91;97646.66;4821141;29;20057;-65
2022/04/27 11:21:55;;;;;;;21.17;8.15;;;;;;;36.74;27.20;97644.06;4829615;29;20049;-65
2022/04/27 11:24:45;;;;;;;22.13;8.13;;;;;;;36.55;29.16;97639.91;4827806;29;20065;-64
2022/04/27 11:27:29;;;;;;;33.53;8.80;;;;;;;36.34;30.92;97635.16;4824551;29;20606;-64
2022/04/27 11:30:19;;;;;;;30.15;8.52;;;;;;;36.28;29.60;97636.91;4822901;29;20081;-64
2022/04/27 11:33:01;;;;;;;24.40;10.13;;;;;;;36.02;32.47;97629.31;4837229;29;20114;-65
2022/04/27 11:35:53;;;;;;;41.45;11.57;;;;;;;36.25;30.10;97633.88;4836077;29;20056;-64
2022/04/27 11:38:37;;;;;;;46.13;12.57;;;;;;;36.40;29.33;97635.03;4830500;29;20053;-64
2022/04/27 11:41:28;;;;;;;35.45;11.10;;;;;;;36.38;29.83;97625.59;4828307;29;20720;-64
2022/04/27 11:44:21;;;;;;;40.13;11.05;;;;;;;36.27;31.33;97631.78;4832700;29;20148;-63
2022/04/27 11:47:11;;;;;;;39.63;10.88;;;;;;;36.12;32.94;97634.09;4819619;29;20076;-64
2022/04/27 11:50:01;;;;;;;33.80;11.15;;;;;;;36.03;31.62;97637.16;4813489;29;20569;-64
2022/04/27 11:52:51;;;;;;;37.60;12.00;;;;;;;36.09;31.49;97637.25;4810086;29;20082;-65
2022/04/27 11:55:48;;;;;;;54.22;12.52;;;;;;;36.10;29.84;97642.38;4826958;29;20475;-64
2022/04/27 11:58:25;;;;;;;41.50;11.35;;;;;;;36.05;31.76;97636.91;4825368;29;20058;-64
2022/04/27 12:01:21;;;;;;;33.53;10.35;;;;;;;35.99;31.86;97630.63;4811649;29;20051;-62
2022/04/27 12:04:04;;;;;;;35.25;11.93;;;;;;;36.03;30.02;97639.00;4826884;29;20543;-65
2022/04/27 12:06:59;;;;;;;41.47;12.68;;;;;;;35.98;31.97;97633.53;4825957;29;20085;-64
2022/04/27 12:09:34;;;;;;;44.15;12.75;;;;;;;35.91;31.74;97632.84;4823945;29;20058;-65
2022/04/27 12:12:25;;;;;;;34.15;11.23;;;;;;;35.74;32.06;97627.34;4831812;29;20062;-65
2022/04/27 12:15:12;;;;;;;42.35;10.88;;;;;;;35.54;34.00;97627.63;4823396;29;20138;-65
2022/04/27 12:18:03;;;;;;;36.95;10.13;;;;;;;35.50;33.18;97625.66;4828606;29;20050;-64
2022/04/27 12:20:48;;;;;;;34.75;11.13;;;;;;;35.60;30.04;97629.38;4824515;29;20065;-66
2022/04/27 12:23:44;;;;;;;47.42;12.00;;;;;;;35.57;31.16;97631.72;4829378;29;20050;-63
2022/04/27 12:26:25;;;;;;;44.95;12.20;;;;;;;35.48;32.62;97636.59;4823194;29;20854;-64
2022/04/27 12:29:14;;;;;;;41.72;11.60;;;;;;;35.44;33.80;97637.31;4827423;29;20065;-63
2022/04/27 12:32:03;;;;;;;41.25;12.38;;;;;;;35.32;32.38;97637.25;4824110;29;20060;-63
2022/04/27 12:37:53;;;;;;;34.72;12.63;;;;;;;35.09;33.42;97635.31;4498739;29;10000121;-63
2022/04/27 12:40:42;;;;;;;32.75;11.52;;;;;;;34.96;34.31;97640.84;4833640;29;20779;-63
2022/04/27 12:43:32;;;;;;;41.72;14.23;;;;;;;35.00;32.62;97642.03;4822096;29;20050;-62
2022/04/27 12:46:15;;;;;;;44.60;11.80;;;;;;;34.90;32.75;97637.19;4825373;29;20050;-63
2022/04/27 12:49:09;;;;;;;39.47;12.70;;;;;;;34.74;36.30;97631.66;4825882;29;20479;-62
2022/04/27 12:52:26;;;;;;;34.72;12.65;;;;;;;34.64;34.37;97640.22;4823243;29;20050;-63
2022/04/27 12:55:23;;;;;;;41.47;11.60;;;;;;;34.53;34.72;97631.06;4827146;29;20050;-64
2022/04/27 12:58:25;;;;;;;43.50;12.48;;;;;;;34.42;34.76;97636.34;4828490;29;20058;-63
2022/04/27 13:01:08;;;;;;;37.60;11.98;;;;;;;34.33;35.45;97625.09;4829401;29;20576;-63
2022/04/27 13:03:57;;;;;;;39.63;12.02;;;;;;;34.20;35.56;97625.22;4828785;29;20054;-63
2022/04/27 13:06:39;;;;;;;44.63;10.93;;;;;;;34.19;35.56;97631.63;4827126;29;20065;-63
2022/04/27 13:12:31;;;;;;;46.25;10.98;;;;;;;34.16;35.87;97635.53;4834566;29;20073;-63
2022/04/27 13:15:27;;;;;;;44.05;12.13;;;;;;;34.01;36.00;97627.06;4832256;29;20058;-63
2022/04/27 13:18:17;;;;;;;42.65;13.25;;;;;;;33.92;37.23;97638.28;4824227;29;20072;-62
2022/04/27 13:20:59;;;;;;;37.78;12.00;;;;;;;33.80;36.34;97636.31;4829628;29;20057;-62
2022/04/27 13:23:55;;;;;;;41.13;11.15;;;;;;;33.81;35.59;97631.78;4832491;29;20378;-63
2022/04/27 13:26:31;;;;;;;37.50;11.00;;;;;;;33.72;36.41;97644.59;4836748;29;20351;-64
2022/04/27 13:29:21;;;;;;;37.15;11.75;;;;;;;33.57;37.29;97640.59;4834373;29;20046;-63
2022/04/27 13:32:11;;;;;;;43.55;11.95;;;;;;;33.39;38.18;97633.31;4831452;29;20053;-63
2022/04/27 13:34:53;;;;;;;27.77;11.15;;;;;;;33.29;38.65;97647.16;4834900;29;20054;-63